sensor_id;sensor_type;location;lat;lon;timestamp;P1;durP1;ratioP1;P2;durP2;ratioP2
8159;SDS011;27404;52.398;9.646;2023-08-07T00:00:53;11.30;;;7.27;;
8159;SDS011;27404;52.398;9.646;2023-08-07T00:03:18;10.33;;;6.90;;
8159;SDS011;27404;52.398;9.646;2023-08-07T00:05:44;9.30;;;6.93;;
8159;SDS011;27404;52.398;9.646;2023-08-07T00:08:11;8.07;;;6.53;;
8159;SDS011;27404;52.398;9.646;2023-08-07T00:10:36;10.37;;;7.43;;
8159;SDS011;27404;52.398;9.646;2023-08-07T00:13:02;10.90;;;7.20;;
8159;SDS011;27404;52.398;9.646;2023-08-07T00:15:28;8.73;;;6.33;;
8159;SDS011;27404;52.398;9.646;2023-08-07T00:17:53;9.07;;;6.93;;
8159;SDS011;27404;52.398;9.646;2023-08-07T00:20:19;11.70;;;6.70;;
8159;SDS011;27404;52.398;9.646;2023-08-07T00:22:44;10.03;;;6.70;;
8159;SDS011;27404;52.398;9.646;2023-08-07T00:25:10;7.90;;;6.27;;
8159;SDS011;27404;52.398;9.646;2023-08-07T00:27:35;9.83;;;6.30;;
8159;SDS011;27404;52.398;9.646;2023-08-07T00:30:00;9.20;;;6.80;;
8159;SDS011;27404;52.398;9.646;2023-08-07T00:32:26;9.93;;;7.13;;
8159;SDS011;27404;52.398;9.646;2023-08-07T00:34:51;11.17;;;7.43;;
8159;SDS011;27404;52.398;9.646;2023-08-07T00:37:17;9.90;;;7.00;;
8159;SDS011;27404;52.398;9.646;2023-08-07T00:39:42;11.63;;;7.47;;
8159;SDS011;27404;52.398;9.646;2023-08-07T00:42:08;10.00;;;7.37;;
8159;SDS011;27404;52.398;9.646;2023-08-07T00:44:33;12.00;;;8.50;;
8159;SDS011;27404;52.398;9.646;2023-08-07T00:46:58;10.70;;;7.73;;
8159;SDS011;27404;52.398;9.646;2023-08-07T00:49:24;10.50;;;7.03;;
8159;SDS011;27404;52.398;9.646;2023-08-07T00:51:50;10.13;;;7.43;;
8159;SDS011;27404;52.398;9.646;2023-08-07T00:54:18;8.37;;;7.30;;
8159;SDS011;27404;52.398;9.646;2023-08-07T00:56:44;12.80;;;7.47;;
8159;SDS011;27404;52.398;9.646;2023-08-07T00:59:10;15.27;;;8.37;;
8159;SDS011;27404;52.398;9.646;2023-08-07T01:01:37;13.27;;;8.30;;
8159;SDS011;27404;52.398;9.646;2023-08-07T01:04:03;12.03;;;8.67;;
8159;SDS011;27404;52.398;9.646;2023-08-07T01:06:28;14.43;;;8.10;;
8159;SDS011;27404;52.398;9.646;2023-08-07T01:08:54;10.67;;;8.13;;
8159;SDS011;27404;52.398;9.646;2023-08-07T01:17:20;11.07;;;8.20;;
8159;SDS011;27404;52.398;9.646;2023-08-07T01:19:48;12.13;;;8.33;;
8159;SDS011;27404;52.398;9.646;2023-08-07T01:22:17;11.67;;;8.00;;
8159;SDS011;27404;52.398;9.646;2023-08-07T01:24:44;13.43;;;8.50;;
8159;SDS011;27404;52.398;9.646;2023-08-07T01:29:56;18.67;;;8.53;;
8159;SDS011;27404;52.398;9.646;2023-08-07T01:32:28;14.63;;;8.80;;
8159;SDS011;27404;52.398;9.646;2023-08-07T01:35:03;11.33;;;9.07;;
8159;SDS011;27404;52.398;9.646;2023-08-07T01:37:33;17.57;;;9.73;;
8159;SDS011;27404;52.398;9.646;2023-08-07T01:40:01;12.27;;;9.30;;
8159;SDS011;27404;52.398;9.646;2023-08-07T01:42:29;14.37;;;10.20;;
8159;SDS011;27404;52.398;9.646;2023-08-07T01:44:54;12.10;;;9.23;;
8159;SDS011;27404;52.398;9.646;2023-08-07T01:47:20;13.43;;;9.80;;
8159;SDS011;27404;52.398;9.646;2023-08-07T01:49:45;12.37;;;9.33;;
8159;SDS011;27404;52.398;9.646;2023-08-07T01:52:11;14.77;;;9.23;;
8159;SDS011;27404;52.398;9.646;2023-08-07T01:54:37;13.37;;;9.30;;
8159;SDS011;27404;52.398;9.646;2023-08-07T01:57:02;14.03;;;9.23;;
8159;SDS011;27404;52.398;9.646;2023-08-07T01:59:28;12.03;;;8.60;;
8159;SDS011;27404;52.398;9.646;2023-08-07T02:01:54;13.67;;;8.70;;
8159;SDS011;27404;52.398;9.646;2023-08-07T02:04:19;13.10;;;8.87;;
8159;SDS011;27404;52.398;9.646;2023-08-07T02:06:44;11.23;;;8.20;;
8159;SDS011;27404;52.398;9.646;2023-08-07T02:09:10;10.93;;;8.40;;
8159;SDS011;27404;52.398;9.646;2023-08-07T02:11:35;12.90;;;7.80;;
8159;SDS011;27404;52.398;9.646;2023-08-07T02:14:01;13.50;;;7.67;;
8159;SDS011;27404;52.398;9.646;2023-08-07T02:16:26;13.27;;;7.60;;
8159;SDS011;27404;52.398;9.646;2023-08-07T02:18:51;10.33;;;7.37;;
8159;SDS011;27404;52.398;9.646;2023-08-07T02:21:17;9.87;;;7.37;;
8159;SDS011;27404;52.398;9.646;2023-08-07T02:23:42;10.13;;;7.30;;
8159;SDS011;27404;52.398;9.646;2023-08-07T02:26:08;12.23;;;7.43;;
8159;SDS011;27404;52.398;9.646;2023-08-07T02:28:33;10.27;;;7.17;;
8159;SDS011;27404;52.398;9.646;2023-08-07T02:30:59;10.23;;;7.20;;
8159;SDS011;27404;52.398;9.646;2023-08-07T02:33:24;11.37;;;7.33;;
8159;SDS011;27404;52.398;9.646;2023-08-07T02:35:50;10.90;;;6.93;;
8159;SDS011;27404;52.398;9.646;2023-08-07T02:38:16;11.13;;;6.77;;
8159;SDS011;27404;52.398;9.646;2023-08-07T02:40:41;10.07;;;6.13;;
8159;SDS011;27404;52.398;9.646;2023-08-07T02:43:09;16.10;;;7.10;;
8159;SDS011;27404;52.398;9.646;2023-08-07T02:45:34;8.73;;;6.77;;
8159;SDS011;27404;52.398;9.646;2023-08-07T02:48:00;11.93;;;6.60;;
8159;SDS011;27404;52.398;9.646;2023-08-07T02:50:25;11.40;;;7.10;;
8159;SDS011;27404;52.398;9.646;2023-08-07T02:52:52;13.27;;;7.23;;
8159;SDS011;27404;52.398;9.646;2023-08-07T02:55:18;11.33;;;7.50;;
8159;SDS011;27404;52.398;9.646;2023-08-07T02:57:43;11.13;;;7.20;;
8159;SDS011;27404;52.398;9.646;2023-08-07T03:00:09;11.93;;;7.63;;
8159;SDS011;27404;52.398;9.646;2023-08-07T03:02:36;11.73;;;7.40;;
8159;SDS011;27404;52.398;9.646;2023-08-07T03:05:01;10.50;;;7.07;;
8159;SDS011;27404;52.398;9.646;2023-08-07T03:07:27;11.60;;;7.70;;
8159;SDS011;27404;52.398;9.646;2023-08-07T03:09:52;12.83;;;7.53;;
8159;SDS011;27404;52.398;9.646;2023-08-07T03:12:18;10.93;;;7.73;;
8159;SDS011;27404;52.398;9.646;2023-08-07T03:14:43;13.40;;;8.07;;
8159;SDS011;27404;52.398;9.646;2023-08-07T03:17:09;11.03;;;7.37;;
8159;SDS011;27404;52.398;9.646;2023-08-07T03:19:34;11.73;;;7.20;;
8159;SDS011;27404;52.398;9.646;2023-08-07T03:22:00;14.57;;;7.63;;
8159;SDS011;27404;52.398;9.646;2023-08-07T03:24:25;12.53;;;8.70;;
8159;SDS011;27404;52.398;9.646;2023-08-07T03:26:51;14.27;;;7.17;;
8159;SDS011;27404;52.398;9.646;2023-08-07T03:29:16;12.30;;;7.43;;
8159;SDS011;27404;52.398;9.646;2023-08-07T03:31:42;14.17;;;7.60;;
8159;SDS011;27404;52.398;9.646;2023-08-07T03:34:07;14.57;;;8.47;;
8159;SDS011;27404;52.398;9.646;2023-08-07T03:36:33;14.37;;;8.70;;
8159;SDS011;27404;52.398;9.646;2023-08-07T03:38:58;10.93;;;8.03;;
8159;SDS011;27404;52.398;9.646;2023-08-07T03:41:23;14.47;;;8.77;;
8159;SDS011;27404;52.398;9.646;2023-08-07T03:43:49;12.33;;;8.17;;
8159;SDS011;27404;52.398;9.646;2023-08-07T03:46:14;13.77;;;7.43;;
8159;SDS011;27404;52.398;9.646;2023-08-07T03:48:40;15.47;;;9.17;;
8159;SDS011;27404;52.398;9.646;2023-08-07T03:51:06;13.83;;;7.40;;
8159;SDS011;27404;52.398;9.646;2023-08-07T03:53:35;15.10;;;8.40;;
8159;SDS011;27404;52.398;9.646;2023-08-07T03:56:01;15.80;;;7.83;;
8159;SDS011;27404;52.398;9.646;2023-08-07T03:58:27;14.73;;;7.93;;
8159;SDS011;27404;52.398;9.646;2023-08-07T04:00:52;15.50;;;7.83;;
8159;SDS011;27404;52.398;9.646;2023-08-07T04:03:21;13.83;;;7.53;;
8159;SDS011;27404;52.398;9.646;2023-08-07T04:05:46;13.73;;;8.43;;
8159;SDS011;27404;52.398;9.646;2023-08-07T04:08:12;11.80;;;8.43;;
8159;SDS011;27404;52.398;9.646;2023-08-07T04:10:37;12.67;;;7.03;;
8159;SDS011;27404;52.398;9.646;2023-08-07T04:13:03;13.37;;;7.60;;
8159;SDS011;27404;52.398;9.646;2023-08-07T04:15:28;11.93;;;7.23;;
8159;SDS011;27404;52.398;9.646;2023-08-07T04:17:54;13.67;;;7.60;;
8159;SDS011;27404;52.398;9.646;2023-08-07T04:20:20;12.53;;;7.13;;
8159;SDS011;27404;52.398;9.646;2023-08-07T04:22:45;10.93;;;7.37;;
8159;SDS011;27404;52.398;9.646;2023-08-07T04:25:11;15.13;;;6.93;;
8159;SDS011;27404;52.398;9.646;2023-08-07T04:27:37;14.00;;;7.30;;
8159;SDS011;27404;52.398;9.646;2023-08-07T04:30:03;10.83;;;7.03;;
8159;SDS011;27404;52.398;9.646;2023-08-07T04:32:30;11.67;;;6.73;;
8159;SDS011;27404;52.398;9.646;2023-08-07T04:34:55;11.00;;;6.67;;
8159;SDS011;27404;52.398;9.646;2023-08-07T04:37:21;8.97;;;6.70;;
8159;SDS011;27404;52.398;9.646;2023-08-07T04:39:47;13.90;;;6.80;;
8159;SDS011;27404;52.398;9.646;2023-08-07T04:42:13;10.20;;;7.20;;
8159;SDS011;27404;52.398;9.646;2023-08-07T04:44:38;10.07;;;7.10;;
8159;SDS011;27404;52.398;9.646;2023-08-07T04:47:03;11.83;;;6.73;;
8159;SDS011;27404;52.398;9.646;2023-08-07T04:49:29;9.87;;;6.97;;
8159;SDS011;27404;52.398;9.646;2023-08-07T04:51:55;10.27;;;6.63;;
8159;SDS011;27404;52.398;9.646;2023-08-07T04:54:20;12.80;;;7.37;;
8159;SDS011;27404;52.398;9.646;2023-08-07T04:56:46;10.20;;;7.13;;
8159;SDS011;27404;52.398;9.646;2023-08-07T04:59:11;13.37;;;7.53;;
8159;SDS011;27404;52.398;9.646;2023-08-07T05:01:36;8.73;;;6.30;;
8159;SDS011;27404;52.398;9.646;2023-08-07T05:04:03;9.67;;;6.73;;
8159;SDS011;27404;52.398;9.646;2023-08-07T05:06:30;8.97;;;6.13;;
8159;SDS011;27404;52.398;9.646;2023-08-07T05:08:56;11.50;;;6.87;;
8159;SDS011;27404;52.398;9.646;2023-08-07T05:11:21;9.23;;;6.60;;
8159;SDS011;27404;52.398;9.646;2023-08-07T05:13:47;11.30;;;6.50;;
8159;SDS011;27404;52.398;9.646;2023-08-07T05:16:12;8.20;;;6.03;;
8159;SDS011;27404;52.398;9.646;2023-08-07T05:18:37;9.17;;;6.00;;
8159;SDS011;27404;52.398;9.646;2023-08-07T05:21:03;9.43;;;5.93;;
8159;SDS011;27404;52.398;9.646;2023-08-07T05:23:28;10.57;;;5.70;;
8159;SDS011;27404;52.398;9.646;2023-08-07T05:25:54;7.63;;;5.80;;
8159;SDS011;27404;52.398;9.646;2023-08-07T05:28:19;9.97;;;6.00;;
8159;SDS011;27404;52.398;9.646;2023-08-07T05:30:44;6.60;;;5.17;;
8159;SDS011;27404;52.398;9.646;2023-08-07T05:33:10;7.70;;;5.20;;
8159;SDS011;27404;52.398;9.646;2023-08-07T05:35:37;8.27;;;5.13;;
8159;SDS011;27404;52.398;9.646;2023-08-07T05:38:03;9.10;;;4.97;;
8159;SDS011;27404;52.398;9.646;2023-08-07T05:40:29;8.17;;;5.00;;
8159;SDS011;27404;52.398;9.646;2023-08-07T05:42:54;8.63;;;4.67;;
8159;SDS011;27404;52.398;9.646;2023-08-07T05:45:20;7.50;;;4.43;;
8159;SDS011;27404;52.398;9.646;2023-08-07T05:47:45;8.17;;;4.60;;
8159;SDS011;27404;52.398;9.646;2023-08-07T05:50:11;9.83;;;5.20;;
8159;SDS011;27404;52.398;9.646;2023-08-07T05:52:36;7.73;;;4.80;;
8159;SDS011;27404;52.398;9.646;2023-08-07T05:55:03;7.03;;;4.40;;
8159;SDS011;27404;52.398;9.646;2023-08-07T05:57:29;7.77;;;4.77;;
8159;SDS011;27404;52.398;9.646;2023-08-07T05:59:54;5.83;;;4.43;;
8159;SDS011;27404;52.398;9.646;2023-08-07T06:02:19;7.43;;;4.43;;
8159;SDS011;27404;52.398;9.646;2023-08-07T06:04:45;6.63;;;4.60;;
8159;SDS011;27404;52.398;9.646;2023-08-07T06:07:10;10.93;;;4.33;;
8159;SDS011;27404;52.398;9.646;2023-08-07T06:09:36;6.57;;;4.03;;
8159;SDS011;27404;52.398;9.646;2023-08-07T06:12:01;7.83;;;4.00;;
8159;SDS011;27404;52.398;9.646;2023-08-07T06:14:27;5.77;;;3.67;;
8159;SDS011;27404;52.398;9.646;2023-08-07T06:16:53;5.80;;;4.03;;
8159;SDS011;27404;52.398;9.646;2023-08-07T06:19:19;6.97;;;3.67;;
8159;SDS011;27404;52.398;9.646;2023-08-07T06:21:47;5.50;;;3.57;;
8159;SDS011;27404;52.398;9.646;2023-08-07T06:24:13;6.10;;;3.43;;
8159;SDS011;27404;52.398;9.646;2023-08-07T06:26:38;9.57;;;3.60;;
8159;SDS011;27404;52.398;9.646;2023-08-07T06:29:03;5.97;;;3.20;;
8159;SDS011;27404;52.398;9.646;2023-08-07T06:31:29;4.43;;;3.00;;
8159;SDS011;27404;52.398;9.646;2023-08-07T06:33:54;5.10;;;3.00;;
8159;SDS011;27404;52.398;9.646;2023-08-07T06:36:20;5.50;;;3.10;;
8159;SDS011;27404;52.398;9.646;2023-08-07T06:38:46;4.83;;;3.13;;
8159;SDS011;27404;52.398;9.646;2023-08-07T06:41:12;4.27;;;3.00;;
8159;SDS011;27404;52.398;9.646;2023-08-07T06:43:37;5.33;;;3.00;;
8159;SDS011;27404;52.398;9.646;2023-08-07T06:46:03;7.57;;;3.03;;
8159;SDS011;27404;52.398;9.646;2023-08-07T06:48:28;3.90;;;2.83;;
8159;SDS011;27404;52.398;9.646;2023-08-07T06:50:54;5.67;;;2.93;;
8159;SDS011;27404;52.398;9.646;2023-08-07T06:53:19;4.67;;;2.70;;
8159;SDS011;27404;52.398;9.646;2023-08-07T06:55:45;6.80;;;2.73;;
8159;SDS011;27404;52.398;9.646;2023-08-07T06:58:10;6.10;;;2.77;;
8159;SDS011;27404;52.398;9.646;2023-08-07T07:00:36;5.60;;;2.93;;
8159;SDS011;27404;52.398;9.646;2023-08-07T07:03:02;4.53;;;3.10;;
8159;SDS011;27404;52.398;9.646;2023-08-07T07:05:28;6.00;;;3.40;;
8159;SDS011;27404;52.398;9.646;2023-08-07T07:07:55;5.90;;;2.67;;
8159;SDS011;27404;52.398;9.646;2023-08-07T07:10:21;5.63;;;3.03;;
8159;SDS011;27404;52.398;9.646;2023-08-07T07:12:46;8.03;;;2.60;;
8159;SDS011;27404;52.398;9.646;2023-08-07T07:15:12;5.80;;;2.90;;
8159;SDS011;27404;52.398;9.646;2023-08-07T07:17:38;6.60;;;3.03;;
8159;SDS011;27404;52.398;9.646;2023-08-07T07:20:03;4.90;;;3.10;;
8159;SDS011;27404;52.398;9.646;2023-08-07T07:22:29;5.67;;;2.63;;
8159;SDS011;27404;52.398;9.646;2023-08-07T07:24:55;5.33;;;3.00;;
8159;SDS011;27404;52.398;9.646;2023-08-07T07:27:20;4.03;;;2.93;;
8159;SDS011;27404;52.398;9.646;2023-08-07T07:29:47;5.40;;;3.03;;
8159;SDS011;27404;52.398;9.646;2023-08-07T07:32:13;6.50;;;2.60;;
8159;SDS011;27404;52.398;9.646;2023-08-07T07:34:39;5.77;;;2.10;;
8159;SDS011;27404;52.398;9.646;2023-08-07T07:37:04;3.70;;;2.30;;
8159;SDS011;27404;52.398;9.646;2023-08-07T07:39:30;8.07;;;2.43;;
8159;SDS011;27404;52.398;9.646;2023-08-07T07:41:55;4.23;;;1.93;;
8159;SDS011;27404;52.398;9.646;2023-08-07T07:44:21;6.67;;;2.20;;
8159;SDS011;27404;52.398;9.646;2023-08-07T07:46:46;3.70;;;2.50;;
8159;SDS011;27404;52.398;9.646;2023-08-07T07:49:11;4.80;;;2.23;;
8159;SDS011;27404;52.398;9.646;2023-08-07T07:51:37;4.70;;;2.30;;
8159;SDS011;27404;52.398;9.646;2023-08-07T07:54:02;5.57;;;2.00;;
8159;SDS011;27404;52.398;9.646;2023-08-07T07:56:28;3.90;;;1.93;;
8159;SDS011;27404;52.398;9.646;2023-08-07T07:58:53;3.83;;;2.00;;
8159;SDS011;27404;52.398;9.646;2023-08-07T08:01:19;5.97;;;1.80;;
8159;SDS011;27404;52.398;9.646;2023-08-07T08:03:44;3.17;;;1.60;;
8159;SDS011;27404;52.398;9.646;2023-08-07T08:06:13;4.33;;;1.90;;
8159;SDS011;27404;52.398;9.646;2023-08-07T08:08:38;3.20;;;1.33;;
8159;SDS011;27404;52.398;9.646;2023-08-07T08:11:04;5.83;;;1.70;;
8159;SDS011;27404;52.398;9.646;2023-08-07T08:13:30;3.43;;;1.50;;
8159;SDS011;27404;52.398;9.646;2023-08-07T08:15:55;3.40;;;1.60;;
8159;SDS011;27404;52.398;9.646;2023-08-07T08:18:21;3.83;;;1.60;;
8159;SDS011;27404;52.398;9.646;2023-08-07T08:20:46;7.83;;;1.63;;
8159;SDS011;27404;52.398;9.646;2023-08-07T08:23:13;4.50;;;1.67;;
8159;SDS011;27404;52.398;9.646;2023-08-07T08:25:38;3.40;;;1.83;;
8159;SDS011;27404;52.398;9.646;2023-08-07T08:28:04;5.13;;;1.60;;
8159;SDS011;27404;52.398;9.646;2023-08-07T08:30:29;4.40;;;1.60;;
8159;SDS011;27404;52.398;9.646;2023-08-07T08:32:55;5.03;;;1.60;;
8159;SDS011;27404;52.398;9.646;2023-08-07T08:35:20;5.17;;;1.60;;
8159;SDS011;27404;52.398;9.646;2023-08-07T08:37:46;7.27;;;1.50;;
8159;SDS011;27404;52.398;9.646;2023-08-07T08:40:11;3.17;;;1.50;;
8159;SDS011;27404;52.398;9.646;2023-08-07T08:42:38;3.73;;;1.50;;
8159;SDS011;27404;52.398;9.646;2023-08-07T08:45:05;3.83;;;1.43;;
8159;SDS011;27404;52.398;9.646;2023-08-07T08:47:36;4.47;;;1.60;;
8159;SDS011;27404;52.398;9.646;2023-08-07T08:50:09;3.27;;;1.60;;
8159;SDS011;27404;52.398;9.646;2023-08-07T08:52:38;4.27;;;1.80;;
8159;SDS011;27404;52.398;9.646;2023-08-07T08:55:06;4.47;;;1.80;;
8159;SDS011;27404;52.398;9.646;2023-08-07T08:57:33;6.37;;;2.30;;
8159;SDS011;27404;52.398;9.646;2023-08-07T09:00:00;7.83;;;2.20;;
8159;SDS011;27404;52.398;9.646;2023-08-07T09:02:27;6.47;;;2.27;;
8159;SDS011;27404;52.398;9.646;2023-08-07T09:04:52;9.10;;;2.60;;
8159;SDS011;27404;52.398;9.646;2023-08-07T09:07:18;8.20;;;2.83;;
8159;SDS011;27404;52.398;9.646;2023-08-07T09:09:46;6.47;;;2.43;;
8159;SDS011;27404;52.398;9.646;2023-08-07T09:12:15;7.47;;;2.50;;
8159;SDS011;27404;52.398;9.646;2023-08-07T09:14:52;6.30;;;2.03;;
8159;SDS011;27404;52.398;9.646;2023-08-07T09:17:23;6.53;;;2.50;;
8159;SDS011;27404;52.398;9.646;2023-08-07T09:19:49;9.90;;;2.10;;
8159;SDS011;27404;52.398;9.646;2023-08-07T09:22:16;4.60;;;2.07;;
8159;SDS011;27404;52.398;9.646;2023-08-07T09:24:42;9.77;;;1.90;;
8159;SDS011;27404;52.398;9.646;2023-08-07T09:27:07;5.47;;;2.10;;
8159;SDS011;27404;52.398;9.646;2023-08-07T09:29:33;6.83;;;1.87;;
8159;SDS011;27404;52.398;9.646;2023-08-07T09:32:05;8.23;;;1.80;;
8159;SDS011;27404;52.398;9.646;2023-08-07T09:34:38;6.40;;;2.10;;
8159;SDS011;27404;52.398;9.646;2023-08-07T09:37:07;5.97;;;1.77;;
8159;SDS011;27404;52.398;9.646;2023-08-07T09:39:34;6.47;;;1.97;;
8159;SDS011;27404;52.398;9.646;2023-08-07T09:42:01;8.13;;;2.10;;
8159;SDS011;27404;52.398;9.646;2023-08-07T09:44:34;9.27;;;2.50;;
8159;SDS011;27404;52.398;9.646;2023-08-07T09:47:13;6.67;;;2.40;;
8159;SDS011;27404;52.398;9.646;2023-08-07T09:49:39;8.93;;;2.50;;
8159;SDS011;27404;52.398;9.646;2023-08-07T09:52:05;9.53;;;2.53;;
8159;SDS011;27404;52.398;9.646;2023-08-07T09:54:32;6.13;;;1.60;;
8159;SDS011;27404;52.398;9.646;2023-08-07T09:56:58;3.03;;;1.67;;
8159;SDS011;27404;52.398;9.646;2023-08-07T09:59:24;5.23;;;1.77;;
8159;SDS011;27404;52.398;9.646;2023-08-07T10:01:52;6.27;;;1.73;;
8159;SDS011;27404;52.398;9.646;2023-08-07T10:04:18;6.67;;;2.17;;
8159;SDS011;27404;52.398;9.646;2023-08-07T10:06:44;9.13;;;2.23;;
8159;SDS011;27404;52.398;9.646;2023-08-07T10:09:11;5.00;;;1.80;;
8159;SDS011;27404;52.398;9.646;2023-08-07T10:11:38;5.20;;;1.60;;
8159;SDS011;27404;52.398;9.646;2023-08-07T10:14:05;7.00;;;1.90;;
8159;SDS011;27404;52.398;9.646;2023-08-07T10:16:30;4.87;;;1.60;;
8159;SDS011;27404;52.398;9.646;2023-08-07T10:18:57;4.70;;;1.33;;
8159;SDS011;27404;52.398;9.646;2023-08-07T10:21:23;6.00;;;1.63;;
8159;SDS011;27404;52.398;9.646;2023-08-07T10:23:53;14.53;;;2.33;;
8159;SDS011;27404;52.398;9.646;2023-08-07T10:26:19;7.10;;;2.00;;
8159;SDS011;27404;52.398;9.646;2023-08-07T10:28:46;11.13;;;2.13;;
8159;SDS011;27404;52.398;9.646;2023-08-07T10:31:15;4.80;;;1.63;;
8159;SDS011;27404;52.398;9.646;2023-08-07T10:33:41;8.27;;;1.80;;
8159;SDS011;27404;52.398;9.646;2023-08-07T10:36:11;5.33;;;1.60;;
8159;SDS011;27404;52.398;9.646;2023-08-07T10:38:37;8.47;;;1.80;;
8159;SDS011;27404;52.398;9.646;2023-08-07T10:43:28;5.53;;;1.30;;
8159;SDS011;27404;52.398;9.646;2023-08-07T10:46:12;9.57;;;1.87;;
8159;SDS011;27404;52.398;9.646;2023-08-07T10:48:49;6.20;;;1.60;;
8159;SDS011;27404;52.398;9.646;2023-08-07T10:51:19;6.17;;;1.80;;
8159;SDS011;27404;52.398;9.646;2023-08-07T10:53:48;13.80;;;2.90;;
8159;SDS011;27404;52.398;9.646;2023-08-07T10:56:17;6.33;;;1.90;;
8159;SDS011;27404;52.398;9.646;2023-08-07T10:58:53;4.03;;;1.33;;
8159;SDS011;27404;52.398;9.646;2023-08-07T11:01:20;6.37;;;1.70;;
8159;SDS011;27404;52.398;9.646;2023-08-07T11:04:19;4.37;;;1.47;;
8159;SDS011;27404;52.398;9.646;2023-08-07T11:06:39;7.20;;;1.57;;
8159;SDS011;27404;52.398;9.646;2023-08-07T11:09:06;7.93;;;1.97;;
8159;SDS011;27404;52.398;9.646;2023-08-07T11:11:44;4.77;;;1.80;;
8159;SDS011;27404;52.398;9.646;2023-08-07T11:14:15;8.00;;;1.70;;
8159;SDS011;27404;52.398;9.646;2023-08-07T11:16:41;5.27;;;1.80;;
8159;SDS011;27404;52.398;9.646;2023-08-07T11:19:08;5.43;;;2.10;;
8159;SDS011;27404;52.398;9.646;2023-08-07T11:21:34;6.67;;;1.40;;
8159;SDS011;27404;52.398;9.646;2023-08-07T11:24:01;6.73;;;1.47;;
8159;SDS011;27404;52.398;9.646;2023-08-07T11:26:27;4.37;;;1.60;;
8159;SDS011;27404;52.398;9.646;2023-08-07T11:28:56;4.53;;;1.60;;
8159;SDS011;27404;52.398;9.646;2023-08-07T11:31:22;6.07;;;2.07;;
8159;SDS011;27404;52.398;9.646;2023-08-07T11:33:52;3.53;;;1.50;;
8159;SDS011;27404;52.398;9.646;2023-08-07T11:36:22;5.03;;;1.30;;
8159;SDS011;27404;52.398;9.646;2023-08-07T11:38:48;6.23;;;1.40;;
8159;SDS011;27404;52.398;9.646;2023-08-07T11:41:15;6.33;;;1.47;;
8159;SDS011;27404;52.398;9.646;2023-08-07T11:43:42;4.03;;;1.30;;
8159;SDS011;27404;52.398;9.646;2023-08-07T11:46:08;4.93;;;1.23;;
8159;SDS011;27404;52.398;9.646;2023-08-07T11:48:36;9.40;;;1.97;;
8159;SDS011;27404;52.398;9.646;2023-08-07T11:51:03;4.00;;;1.70;;
8159;SDS011;27404;52.398;9.646;2023-08-07T11:53:30;6.03;;;1.53;;
8159;SDS011;27404;52.398;9.646;2023-08-07T11:56:04;6.77;;;1.50;;
8159;SDS011;27404;52.398;9.646;2023-08-07T11:58:41;7.37;;;1.70;;
8159;SDS011;27404;52.398;9.646;2023-08-07T12:01:11;9.97;;;1.70;;
8159;SDS011;27404;52.398;9.646;2023-08-07T12:03:39;11.17;;;1.50;;
8159;SDS011;27404;52.398;9.646;2023-08-07T12:06:06;8.03;;;1.93;;
8159;SDS011;27404;52.398;9.646;2023-08-07T12:08:42;5.40;;;1.77;;
8159;SDS011;27404;52.398;9.646;2023-08-07T12:11:12;4.63;;;1.70;;
8159;SDS011;27404;52.398;9.646;2023-08-07T12:13:41;6.23;;;1.60;;
8159;SDS011;27404;52.398;9.646;2023-08-07T12:16:08;7.20;;;1.60;;
8159;SDS011;27404;52.398;9.646;2023-08-07T12:18:35;3.90;;;1.30;;
8159;SDS011;27404;52.398;9.646;2023-08-07T12:21:03;6.50;;;1.67;;
8159;SDS011;27404;52.398;9.646;2023-08-07T12:23:35;2.50;;;1.20;;
8159;SDS011;27404;52.398;9.646;2023-08-07T12:26:01;4.97;;;1.20;;
8159;SDS011;27404;52.398;9.646;2023-08-07T12:28:28;4.43;;;1.37;;
8159;SDS011;27404;52.398;9.646;2023-08-07T12:30:54;8.17;;;1.70;;
8159;SDS011;27404;52.398;9.646;2023-08-07T12:33:19;4.53;;;1.73;;
8159;SDS011;27404;52.398;9.646;2023-08-07T12:35:45;6.40;;;1.60;;
8159;SDS011;27404;52.398;9.646;2023-08-07T12:38:11;5.60;;;1.67;;
8159;SDS011;27404;52.398;9.646;2023-08-07T12:40:39;5.87;;;1.60;;
8159;SDS011;27404;52.398;9.646;2023-08-07T12:43:05;6.23;;;1.57;;
8159;SDS011;27404;52.398;9.646;2023-08-07T12:45:31;5.83;;;1.60;;
8159;SDS011;27404;52.398;9.646;2023-08-07T12:47:57;5.37;;;2.03;;
8159;SDS011;27404;52.398;9.646;2023-08-07T12:50:23;6.40;;;1.80;;
8159;SDS011;27404;52.398;9.646;2023-08-07T12:52:48;6.57;;;1.80;;
8159;SDS011;27404;52.398;9.646;2023-08-07T12:55:14;8.20;;;1.90;;
8159;SDS011;27404;52.398;9.646;2023-08-07T12:57:42;6.33;;;2.00;;
8159;SDS011;27404;52.398;9.646;2023-08-07T13:00:09;8.43;;;1.80;;
8159;SDS011;27404;52.398;9.646;2023-08-07T13:02:38;5.93;;;1.70;;
8159;SDS011;27404;52.398;9.646;2023-08-07T13:05:05;4.70;;;2.13;;
8159;SDS011;27404;52.398;9.646;2023-08-07T13:07:30;5.77;;;1.70;;
8159;SDS011;27404;52.398;9.646;2023-08-07T13:09:56;7.30;;;1.90;;
8159;SDS011;27404;52.398;9.646;2023-08-07T13:12:22;6.43;;;1.73;;
8159;SDS011;27404;52.398;9.646;2023-08-07T13:14:48;9.53;;;1.97;;
8159;SDS011;27404;52.398;9.646;2023-08-07T13:17:13;7.07;;;2.00;;
8159;SDS011;27404;52.398;9.646;2023-08-07T13:19:39;5.63;;;2.20;;
8159;SDS011;27404;52.398;9.646;2023-08-07T13:22:04;7.43;;;1.97;;
8159;SDS011;27404;52.398;9.646;2023-08-07T13:24:30;6.83;;;2.40;;
8159;SDS011;27404;52.398;9.646;2023-08-07T13:26:55;9.27;;;2.40;;
8159;SDS011;27404;52.398;9.646;2023-08-07T13:29:21;8.07;;;1.77;;
8159;SDS011;27404;52.398;9.646;2023-08-07T13:31:46;7.03;;;1.70;;
8159;SDS011;27404;52.398;9.646;2023-08-07T13:34:13;5.43;;;1.90;;
8159;SDS011;27404;52.398;9.646;2023-08-07T13:36:38;5.50;;;1.63;;
8159;SDS011;27404;52.398;9.646;2023-08-07T13:39:04;6.93;;;1.80;;
8159;SDS011;27404;52.398;9.646;2023-08-07T13:41:31;4.57;;;1.77;;
8159;SDS011;27404;52.398;9.646;2023-08-07T13:43:56;6.43;;;2.30;;
8159;SDS011;27404;52.398;9.646;2023-08-07T13:46:22;6.67;;;2.10;;
8159;SDS011;27404;52.398;9.646;2023-08-07T13:48:47;7.63;;;2.37;;
8159;SDS011;27404;52.398;9.646;2023-08-07T13:51:16;6.50;;;1.90;;
8159;SDS011;27404;52.398;9.646;2023-08-07T13:53:43;7.47;;;1.87;;
8159;SDS011;27404;52.398;9.646;2023-08-07T13:56:09;7.80;;;1.90;;
8159;SDS011;27404;52.398;9.646;2023-08-07T13:58:37;7.13;;;2.53;;
8159;SDS011;27404;52.398;9.646;2023-08-07T14:01:05;5.00;;;2.03;;
8159;SDS011;27404;52.398;9.646;2023-08-07T14:03:31;6.43;;;1.87;;
8159;SDS011;27404;52.398;9.646;2023-08-07T14:05:56;6.93;;;2.00;;
8159;SDS011;27404;52.398;9.646;2023-08-07T14:08:22;7.23;;;2.33;;
8159;SDS011;27404;52.398;9.646;2023-08-07T14:10:48;5.73;;;1.60;;
8159;SDS011;27404;52.398;9.646;2023-08-07T14:13:13;6.67;;;2.07;;
8159;SDS011;27404;52.398;9.646;2023-08-07T14:15:39;4.70;;;1.67;;
8159;SDS011;27404;52.398;9.646;2023-08-07T14:18:05;8.30;;;2.13;;
8159;SDS011;27404;52.398;9.646;2023-08-07T14:20:31;5.27;;;1.40;;
8159;SDS011;27404;52.398;9.646;2023-08-07T14:22:56;7.90;;;1.80;;
8159;SDS011;27404;52.398;9.646;2023-08-07T14:25:22;7.77;;;1.97;;
8159;SDS011;27404;52.398;9.646;2023-08-07T14:27:48;5.50;;;1.60;;
8159;SDS011;27404;52.398;9.646;2023-08-07T14:30:14;6.13;;;1.53;;
8159;SDS011;27404;52.398;9.646;2023-08-07T14:32:40;4.20;;;1.83;;
8159;SDS011;27404;52.398;9.646;2023-08-07T14:35:07;7.90;;;1.67;;
8159;SDS011;27404;52.398;9.646;2023-08-07T14:37:32;5.53;;;1.60;;
8159;SDS011;27404;52.398;9.646;2023-08-07T14:39:58;5.33;;;1.67;;
8159;SDS011;27404;52.398;9.646;2023-08-07T14:42:24;6.10;;;1.90;;
8159;SDS011;27404;52.398;9.646;2023-08-07T14:44:49;11.27;;;2.27;;
8159;SDS011;27404;52.398;9.646;2023-08-07T14:47:15;5.03;;;2.10;;
8159;SDS011;27404;52.398;9.646;2023-08-07T14:49:40;6.33;;;1.73;;
8159;SDS011;27404;52.398;9.646;2023-08-07T14:52:06;5.83;;;2.27;;
8159;SDS011;27404;52.398;9.646;2023-08-07T14:54:32;5.73;;;1.80;;
8159;SDS011;27404;52.398;9.646;2023-08-07T14:56:57;4.53;;;1.63;;
8159;SDS011;27404;52.398;9.646;2023-08-07T14:59:24;4.07;;;1.70;;
8159;SDS011;27404;52.398;9.646;2023-08-07T15:01:50;6.37;;;1.67;;
8159;SDS011;27404;52.398;9.646;2023-08-07T15:04:16;8.47;;;1.90;;